Time;durP1;ratioP1;P1;durP2;ratioP2;P2;SDS_P1;SDS_P2;PMS_P1;PMS_P2;Temp;Humidity;BMP_temperature;BMP_pressure;BME280_temperature;BME280_humidity;BME280_pressure;Samples;Min_cycle;Max_cycle;Signal;HPM_P1;HPM_P2
2022/01/19 00:00:10;;;;;;;3.55;1.98;;;;;;;-3.74;55.51;100109.45;1710713;83;21108;-40
2022/01/19 00:02:37;;;;;;;4.03;1.87;;;;;;;-3.72;55.43;100109.19;1710285;83;21028;-40
2022/01/19 00:05:07;;;;;;;6.22;1.80;;;;;;;-3.73;55.37;100116.36;1710232;82;20965;-40
2022/01/19 00:07:33;;;;;;;2.30;1.63;;;;;;;-3.73;55.33;100119.02;1710510;83;21012;-40
2022/01/19 00:10:04;;;;;;;2.98;1.65;;;;;;;-3.74;55.31;100129.33;1710011;83;21514;-40
2022/01/19 00:12:30;;;;;;;4.58;2.17;;;;;;;-3.78;55.37;100131.39;1710314;83;21011;-40
2022/01/19 00:14:56;;;;;;;3.33;1.90;;;;;;;-3.78;55.41;100148.61;1712596;83;20996;-40
2022/01/19 00:17:23;;;;;;;3.83;1.80;;;;;;;-3.80;55.48;100146.20;1715074;83;21024;-40
2022/01/19 00:19:50;;;;;;;3.95;1.80;;;;;;;-3.80;55.51;100158.64;1715089;83;21035;-40
2022/01/19 00:22:16;;;;;;;3.52;1.80;;;;;;;-3.83;55.54;100160.47;1715215;83;21585;-39
2022/01/19 00:24:43;;;;;;;3.52;1.72;;;;;;;-3.80;55.55;100158.64;1715052;83;21859;-40
2022/01/19 00:27:11;;;;;;;4.22;1.62;;;;;;;-3.75;55.58;100156.05;1714938;83;20925;-40
2022/01/19 00:29:38;;;;;;;4.67;2.12;;;;;;;-3.71;55.45;100149.21;1715035;83;21051;-40
2022/01/19 00:32:06;;;;;;;3.50;2.00;;;;;;;-3.70;55.43;100162.22;1715030;83;20925;-40
2022/01/19 00:34:33;;;;;;;3.17;1.50;;;;;;;-3.70;55.37;100164.88;1714974;83;21456;-40
2022/01/19 00:36:59;;;;;;;2.60;1.60;;;;;;;-3.71;55.34;100162.45;1715169;83;21085;-40
2022/01/19 00:39:31;;;;;;;5.45;1.90;;;;;;;-3.72;55.40;100163.50;1715043;83;20949;-40
2022/01/19 00:41:58;;;;;;;3.40;1.98;;;;;;;-3.69;55.38;100169.13;1715144;83;21013;-39
2022/01/19 00:44:26;;;;;;;3.08;1.65;;;;;;;-3.73;55.17;100162.73;1715068;83;21012;-40
2022/01/19 00:46:52;;;;;;;2.60;1.50;;;;;;;-3.73;55.30;100164.05;1715091;83;21040;-40
2022/01/19 00:49:19;;;;;;;2.90;1.45;;;;;;;-3.71;55.28;100161.13;1715144;83;21151;-40
2022/01/19 00:51:46;;;;;;;3.30;1.45;;;;;;;-3.69;55.10;100167.00;1714996;83;21028;-40
2022/01/19 00:54:12;;;;;;;2.90;1.62;;;;;;;-3.75;55.10;100166.66;1715155;83;21531;-40
2022/01/19 00:56:39;;;;;;;2.47;1.75;;;;;;;-3.78;55.21;100176.43;1714951;83;21531;-39
2022/01/19 00:59:05;;;;;;;2.98;1.80;;;;;;;-3.77;55.22;100183.30;1715157;83;20993;-40
2022/01/19 01:01:32;;;;;;;3.45;1.80;;;;;;;-3.82;55.17;100177.94;1714996;83;21208;-40
2022/01/19 01:03:59;;;;;;;3.40;1.60;;;;;;;-3.91;55.32;100179.41;1715108;83;21503;-40
2022/01/19 01:06:26;;;;;;;2.62;1.50;;;;;;;-3.99;55.48;100177.47;1715114;83;21778;-39
2022/01/19 01:08:52;;;;;;;4.03;1.92;;;;;;;-4.03;55.75;100177.69;1715000;83;20969;-40
2022/01/19 01:11:28;;;;;;;5.67;1.90;;;;;;;-4.00;55.83;100165.27;1715059;83;21072;-40
2022/01/19 01:16:40;;;;;;;4.22;1.55;;;;;;;-4.00;56.05;100166.59;1714868;83;21007;-40
2022/01/19 01:19:08;;;;;;;5.10;1.90;;;;;;;-4.00;55.99;100167.11;1715023;83;21024;-40
2022/01/19 01:21:36;;;;;;;6.83;1.70;;;;;;;-4.00;56.19;100157.84;1731840;82;21503;-40
2022/01/19 01:24:05;;;;;;;4.42;1.80;;;;;;;-3.99;56.14;100164.23;1751163;82;21492;-40
2022/01/19 01:26:31;;;;;;;4.17;1.50;;;;;;;-4.01;56.04;100159.69;1751123;82;21137;-40
2022/01/19 01:28:58;;;;;;;3.90;1.70;;;;;;;-4.10;56.07;100158.51;1751068;82;21017;-39
2022/01/19 01:31:25;;;;;;;4.22;2.00;;;;;;;-4.18;56.41;100162.91;1750999;82;21476;-40
2022/01/19 01:33:52;;;;;;;3.45;1.77;;;;;;;-4.21;56.64;100162.05;1750945;82;21029;-39
2022/01/19 01:36:20;;;;;;;3.35;1.70;;;;;;;-4.22;56.73;100163.64;1715079;83;21087;-40
2022/01/19 01:38:47;;;;;;;4.92;1.80;;;;;;;-4.24;56.91;100168.36;1714939;83;21144;-39
2022/01/19 01:41:15;;;;;;;2.72;1.70;;;;;;;-4.21;57.07;100159.40;1715050;83;21556;-39
2022/01/19 01:43:46;;;;;;;6.47;1.72;;;;;;;-4.18;57.03;100165.55;1704839;83;21004;-40
2022/01/19 01:46:42;;;;;;;5.12;2.00;;;;;;;-4.18;56.96;100164.23;1714901;83;21005;-40
2022/01/19 01:48:57;;;;;;;3.12;1.70;;;;;;;-4.17;56.92;100165.84;1712429;83;21041;-40
2022/01/19 01:54:10;;;;;;;3.75;1.70;;;;;;;-4.16;56.95;100159.47;1714774;83;21578;-40
2022/01/19 01:56:39;;;;;;;2.33;1.60;;;;;;;-4.19;56.94;100151.22;1715006;83;20969;-40
2022/01/19 01:59:09;;;;;;;3.33;1.77;;;;;;;-4.24;56.95;100150.62;1715190;83;21057;-40
2022/01/19 02:01:41;;;;;;;3.52;1.77;;;;;;;-4.29;57.15;100143.94;1715129;83;21628;-39
2022/01/19 02:04:10;;;;;;;2.27;1.60;;;;;;;-4.31;57.27;100142.08;1751047;81;21127;-39
2022/01/19 02:09:26;;;;;;;3.15;1.70;;;;;;;-4.27;57.37;100143.19;1715049;83;21049;-40
2022/01/19 02:23:21;;;;;;;3.37;1.72;;;;;;;-4.33;57.39;100159.23;1707465;84;21055;-39
2022/01/19 02:25:51;;;;;;;6.35;2.02;;;;;;;-4.37;57.51;100165.53;1743093;81;21038;-40
2022/01/19 02:36:49;;;;;;;4.97;1.90;;;;;;;-4.59;58.12;100191.91;1743398;82;21532;-40
2022/01/19 02:41:52;;;;;;;4.78;2.00;;;;;;;-4.69;58.53;100179.83;1743409;82;21029;-40
2022/01/19 02:46:35;;;;;;;3.20;1.60;;;;;;;-4.73;58.69;100171.29;1743254;82;21479;-40
2022/01/19 02:49:49;;;;;;;3.52;1.75;;;;;;;-4.76;58.90;100167.81;1743323;81;21523;-40
2022/01/19 02:52:19;;;;;;;3.95;1.92;;;;;;;-4.75;58.94;100161.48;1743528;81;20938;-40
2022/01/19 02:54:48;;;;;;;3.10;1.87;;;;;;;-4.70;58.93;100155.77;1743171;82;21520;-40
2022/01/19 02:57:16;;;;;;;3.27;1.95;;;;;;;-4.66;58.87;100152.11;1743319;81;21120;-39
2022/01/19 03:10:38;;;;;;;4.28;1.85;;;;;;;-4.53;58.54;100127.97;1707527;84;21133;-39
2022/01/19 03:13:05;;;;;;;4.03;2.10;;;;;;;-4.60;58.66;100128.67;1707542;84;21043;-40
2022/01/19 03:15:34;;;;;;;4.75;1.90;;;;;;;-4.57;58.68;100129.50;1707250;83;21060;-40
2022/01/19 03:18:01;;;;;;;3.65;2.15;;;;;;;-4.57;58.62;100133.47;1702615;84;21847;-39
2022/01/19 03:20:28;;;;;;;3.62;1.90;;;;;;;-4.63;58.73;100134.42;1707491;84;21554;-39
2022/01/19 03:25:22;;;;;;;4.25;1.90;;;;;;;-4.69;58.81;100130.08;1707314;84;21243;-39
2022/01/19 03:27:49;;;;;;;4.22;2.00;;;;;;;-4.69;58.84;100122.15;1707598;84;20993;-40
2022/01/19 03:30:18;;;;;;;3.25;1.90;;;;;;;-4.74;58.90;100110.20;1707661;84;21508;-40
2022/01/19 03:32:46;;;;;;;6.87;2.25;;;;;;;-4.80;59.06;100114.59;1707616;84;21080;-40
2022/01/19 03:35:13;;;;;;;6.58;2.47;;;;;;;-4.86;59.15;100116.36;1707699;84;21468;-40
2022/01/19 03:37:41;;;;;;;5.42;2.40;;;;;;;-4.92;59.31;100113.34;1707352;84;21051;-40
2022/01/19 03:40:09;;;;;;;6.10;2.65;;;;;;;-4.99;59.56;100112.71;1707442;84;21088;-39
2022/01/19 03:42:36;;;;;;;4.30;2.17;;;;;;;-5.04;59.75;100112.63;1706036;82;21093;-40
2022/01/19 03:45:06;;;;;;;4.62;2.20;;;;;;;-5.06;59.95;100124.46;1724833;83;20978;-40
2022/01/19 03:48:05;;;;;;;5.10;2.52;;;;;;;-5.06;60.02;100125.27;1712024;83;21782;-40
2022/01/19 03:50:18;;;;;;;4.58;2.30;;;;;;;-5.12;60.08;100120.92;1711941;83;21091;-40
2022/01/19 03:52:45;;;;;;;8.00;2.30;;;;;;;-5.22;60.33;100129.99;1711884;83;21057;-40
2022/01/19 03:55:13;;;;;;;5.47;2.40;;;;;;;-5.27;60.56;100127.26;1712090;83;21535;-39
2022/01/19 03:57:40;;;;;;;5.22;2.27;;;;;;;-5.33;60.77;100134.84;1707839;83;21709;-40
2022/01/19 04:00:10;;;;;;;4.60;2.40;;;;;;;-5.37;60.94;100138.45;1707259;84;21177;-40
2022/01/19 04:02:40;;;;;;;5.65;2.52;;;;;;;-5.44;61.08;100134.35;1706519;84;20973;-39
2022/01/19 04:05:21;;;;;;;4.60;2.50;;;;;;;-5.49;61.39;100132.42;1702331;84;21029;-40
2022/01/19 04:07:40;;;;;;;3.92;2.30;;;;;;;-5.49;61.63;100130.29;1705407;84;21625;-39
2022/01/19 04:10:08;;;;;;;6.67;2.65;;;;;;;-5.49;61.77;100129.78;1707184;84;21045;-40
2022/01/19 04:12:45;;;;;;;9.70;3.15;;;;;;;-5.46;61.86;100139.05;1707169;84;21126;-39
2022/01/19 04:15:12;;;;;;;6.22;2.25;;;;;;;-5.43;61.96;100137.28;1707080;83;20997;-40
2022/01/19 04:17:46;;;;;;;4.50;2.60;;;;;;;-5.43;61.96;100137.28;1712814;83;21543;-40
2022/01/19 04:20:11;;;;;;;5.30;2.50;;;;;;;-5.45;61.97;100147.27;1712083;83;21088;-39
2022/01/19 04:22:38;;;;;;;4.90;2.42;;;;;;;-5.43;62.37;100147.85;1712818;83;21117;-39
2022/01/19 04:25:08;;;;;;;5.80;2.65;;;;;;;-5.38;62.18;100151.91;1707970;83;21151;-40
2022/01/19 04:27:36;;;;;;;7.53;2.50;;;;;;;-5.42;62.22;100154.20;1712675;83;21512;-39
2022/01/19 04:30:09;;;;;;;5.85;2.10;;;;;;;-5.43;62.33;100151.30;1712750;83;20985;-39
2022/01/19 04:33:23;;;;;;;6.12;2.42;;;;;;;-5.45;62.51;100152.56;1711668;83;21641;-40
2022/01/19 04:35:24;;;;;;;6.72;2.80;;;;;;;-5.48;62.72;100158.32;1702617;83;21106;-40
2022/01/19 04:48:38;;;;;;;5.67;3.05;;;;;;;-5.60;63.63;100157.02;1712871;83;21064;-40
2022/01/19 05:02:28;;;;;;;5.65;2.87;;;;;;;-5.38;63.92;100173.05;1713103;83;21633;-40
2022/01/19 05:07:18;;;;;;;6.85;3.00;;;;;;;-5.27;63.95;100164.26;1682827;83;21101;-39
2022/01/19 05:09:58;;;;;;;8.10;3.22;;;;;;;-5.21;63.77;100159.36;1711812;83;20961;-40
2022/01/19 05:14:54;;;;;;;6.75;2.95;;;;;;;-5.22;63.89;100155.10;1712839;83;21544;-39
2022/01/19 05:17:22;;;;;;;9.08;3.60;;;;;;;-5.23;64.02;100153.52;1712647;83;21134;-39
2022/01/19 05:19:49;;;;;;;7.85;3.30;;;;;;;-5.18;64.18;100152.30;1712639;83;21037;-39
2022/01/19 05:22:16;;;;;;;8.00;2.95;;;;;;;-5.13;64.08;100148.94;1712845;83;20982;-39
2022/01/19 05:24:51;;;;;;;7.20;3.27;;;;;;;-5.12;63.93;100145.23;1712374;83;21053;-39
2022/01/19 05:27:21;;;;;;;9.40;3.43;;;;;;;-5.11;64.15;100137.59;1711843;83;21041;-39
2022/01/19 05:29:49;;;;;;;7.80;3.00;;;;;;;-5.05;64.23;100138.77;1712774;83;21139;-39
2022/01/19 05:32:16;;;;;;;9.00;2.87;;;;;;;-4.99;64.17;100141.80;1712994;83;21037;-40
2022/01/19 05:34:43;;;;;;;7.67;3.27;;;;;;;-4.93;64.14;100128.92;1712609;83;21085;-39
2022/01/19 05:37:21;;;;;;;5.30;2.62;;;;;;;-4.84;63.98;100128.80;1695824;83;21057;-40
2022/01/19 05:40:01;;;;;;;6.80;3.83;;;;;;;-4.78;63.88;100131.01;1710703;83;21087;-40
2022/01/19 05:42:29;;;;;;;6.15;2.98;;;;;;;-4.68;63.84;100135.66;1710772;83;21149;-40
2022/01/19 05:44:56;;;;;;;8.45;3.15;;;;;;;-4.64;63.60;100140.23;1712810;83;20974;-39
2022/01/19 05:47:23;;;;;;;8.03;2.92;;;;;;;-4.62;63.55;100139.48;1713071;83;21075;-39
2022/01/19 05:49:50;;;;;;;6.72;3.00;;;;;;;-4.61;63.59;100139.77;1713086;83;21061;-39
2022/01/19 05:52:17;;;;;;;7.25;2.92;;;;;;;-4.65;63.64;100128.59;1713022;83;20962;-40
2022/01/19 05:54:45;;;;;;;5.75;2.87;;;;;;;-4.68;63.79;100143.08;1712738;83;21152;-39
2022/01/19 05:57:12;;;;;;;9.28;2.77;;;;;;;-4.67;63.92;100149.98;1712949;83;21032;-39
2022/01/19 05:59:46;;;;;;;8.33;3.25;;;;;;;-4.64;64.03;100156.63;1712922;83;20985;-39
2022/01/19 06:02:14;;;;;;;4.97;2.65;;;;;;;-4.62;64.12;100158.00;1712787;83;21796;-39
2022/01/19 06:04:41;;;;;;;8.70;3.55;;;;;;;-4.61;64.24;100164.09;1713018;83;21480;-39
2022/01/19 06:07:07;;;;;;;5.97;3.17;;;;;;;-4.59;64.29;100168.61;1713161;83;21070;-39
2022/01/19 06:10:02;;;;;;;9.48;3.25;;;;;;;-4.56;64.46;100172.11;1712862;83;20985;-40
2022/01/19 06:12:22;;;;;;;5.53;2.23;;;;;;;-4.54;64.51;100163.40;1711685;83;21025;-39
2022/01/19 06:14:49;;;;;;;7.05;3.12;;;;;;;-4.51;64.60;100165.06;1712819;83;21300;-40
2022/01/19 06:17:15;;;;;;;9.73;3.50;;;;;;;-4.46;64.64;100166.98;1714681;83;21065;-39
2022/01/19 06:19:42;;;;;;;7.17;3.00;;;;;;;-4.40;64.72;100164.16;1720456;83;21165;-39
2022/01/19 06:22:11;;;;;;;8.83;3.30;;;;;;;-4.35;64.65;100160.78;1720268;83;21043;-39
2022/01/19 06:24:37;;;;;;;8.30;3.60;;;;;;;-4.30;64.60;100161.38;1720448;83;21009;-39
2022/01/19 06:27:05;;;;;;;6.78;3.60;;;;;;;-4.28;64.48;100156.66;1720516;83;21017;-42
2022/01/19 06:29:32;;;;;;;7.78;3.62;;;;;;;-4.25;64.54;100164.91;1720447;83;21079;-39
2022/01/19 06:32:00;;;;;;;10.65;3.65;;;;;;;-4.20;64.45;100164.17;1720619;83;21093;-39
2022/01/19 06:34:26;;;;;;;8.43;3.70;;;;;;;-4.21;64.34;100167.34;1720463;83;21007;-39
2022/01/19 06:36:55;;;;;;;11.88;3.83;;;;;;;-4.18;64.39;100156.80;1716852;83;21100;-39
2022/01/19 06:39:26;;;;;;;8.58;3.90;;;;;;;-4.11;64.37;100164.84;1719392;83;21028;-39
2022/01/19 06:41:55;;;;;;;13.90;4.42;;;;;;;-4.06;64.09;100164.91;1718827;83;21034;-40
2022/01/19 06:44:21;;;;;;;8.63;3.50;;;;;;;-4.01;64.10;100172.13;1720452;83;21134;-40
2022/01/19 06:46:48;;;;;;;7.62;3.80;;;;;;;-3.99;63.89;100170.05;1720782;83;21004;-40
2022/01/19 06:49:15;;;;;;;9.65;3.90;;;;;;;-4.00;64.03;100167.92;1691113;83;21041;-39
2022/01/19 06:51:43;;;;;;;7.95;3.75;;;;;;;-3.94;63.98;100171.44;1714704;83;21611;-40
2022/01/19 06:54:09;;;;;;;9.43;4.03;;;;;;;-3.93;63.92;100172.25;1715148;83;21112;-40
2022/01/19 06:56:37;;;;;;;9.58;3.83;;;;;;;-3.89;63.96;100178.13;1714900;83;21520;-40
2022/01/19 06:59:21;;;;;;;8.78;3.60;;;;;;;-3.85;63.82;100174.47;1672400;85;21016;-40
2022/01/19 07:01:53;;;;;;;8.53;3.95;;;;;;;-3.82;63.81;100164.69;1685249;83;21472;-40
2022/01/19 07:04:28;;;;;;;6.55;3.27;;;;;;;-3.81;63.72;100159.67;1714868;83;20989;-40
2022/01/19 07:06:55;;;;;;;10.63;3.98;;;;;;;-3.81;63.83;100162.33;1715117;83;21065;-39
2022/01/19 07:09:24;;;;;;;8.47;3.90;;;;;;;-3.76;63.70;100165.05;1714999;83;21556;-39
2022/01/19 07:11:55;;;;;;;9.65;3.92;;;;;;;-3.73;63.72;100163.25;1715124;83;20969;-39
2022/01/19 07:14:24;;;;;;;8.23;3.80;;;;;;;-3.67;63.48;100165.69;1714982;83;21622;-40
2022/01/19 07:16:52;;;;;;;9.25;3.87;;;;;;;-3.67;63.30;100159.59;1714759;83;21045;-40
2022/01/19 07:19:20;;;;;;;7.50;3.75;;;;;;;-3.68;63.48;100165.41;1714999;83;21056;-40
2022/01/19 07:21:48;;;;;;;10.50;3.85;;;;;;;-3.68;63.29;100174.69;1698611;83;21793;-40
2022/01/19 07:24:15;;;;;;;9.58;4.00;;;;;;;-3.68;63.28;100167.28;1673988;85;20986;-39
2022/01/19 07:26:41;;;;;;;10.38;4.12;;;;;;;-3.64;63.45;100160.44;1674214;85;21063;-40
2022/01/19 07:29:09;;;;;;;7.65;3.98;;;;;;;-3.63;63.32;100161.50;1674159;85;21109;-40
2022/01/19 07:31:36;;;;;;;7.80;3.65;;;;;;;-3.62;63.42;100162.30;1674163;85;21615;-40
2022/01/19 07:34:08;;;;;;;9.28;4.12;;;;;;;-3.57;63.41;100157.06;1674308;85;21160;-39
2022/01/19 07:36:36;;;;;;;6.75;3.37;;;;;;;-3.54;63.21;100157.39;1674231;85;21528;-39
2022/01/19 07:39:04;;;;;;;9.55;3.72;;;;;;;-3.47;63.28;100156.38;1674197;85;21029;-39
2022/01/19 07:41:32;;;;;;;8.85;3.40;;;;;;;-3.38;63.19;100157.02;1674155;85;21117;-40
2022/01/19 07:44:00;;;;;;;6.72;3.47;;;;;;;-3.29;63.10;100156.85;1671006;85;21099;-39
2022/01/19 07:46:42;;;;;;;5.95;3.22;;;;;;;-3.26;62.63;100159.02;1602377;85;21862;-40
2022/01/19 07:49:10;;;;;;;9.50;3.62;;;;;;;-3.27;62.71;100158.74;1607286;85;21017;-39
2022/01/19 07:51:42;;;;;;;7.83;3.20;;;;;;;-3.25;62.70;100147.38;1671933;85;21060;-40
2022/01/19 07:54:22;;;;;;;5.28;2.92;;;;;;;-3.22;62.77;100136.26;1673388;85;21070;-40
2022/01/19 07:56:57;;;;;;;9.30;3.10;;;;;;;-3.16;62.50;100137.92;1673367;85;21591;-39
2022/01/19 07:59:28;;;;;;;8.80;3.80;;;;;;;-3.14;62.32;100134.47;1646784;85;21968;-40
2022/01/19 08:01:58;;;;;;;10.20;3.20;;;;;;;-3.15;62.38;100126.23;1673955;85;21038;-39
2022/01/19 08:04:43;;;;;;;6.90;3.62;;;;;;;-3.10;62.29;100136.13;1674001;85;20934;-39
2022/01/19 08:07:12;;;;;;;7.03;3.83;;;;;;;-3.07;62.36;100128.45;1674217;85;21037;-40
2022/01/19 08:09:40;;;;;;;5.67;3.10;;;;;;;-3.05;62.02;100130.86;1674145;85;21014;-40
2022/01/19 08:12:10;;;;;;;5.75;3.20;;;;;;;-3.01;61.97;100132.48;1674123;85;21169;-40
2022/01/19 08:14:39;;;;;;;9.18;3.55;;;;;;;-2.97;61.91;100134.91;1673515;85;20954;-40
2022/01/19 08:17:05;;;;;;;8.85;3.85;;;;;;;-2.93;61.66;100139.97;1672172;85;21038;-40
2022/01/19 08:19:34;;;;;;;7.95;3.77;;;;;;;-2.92;61.43;100141.06;1713608;83;21010;-40
2022/01/19 08:22:02;;;;;;;7.85;4.10;;;;;;;-2.91;61.39;100144.52;1713789;82;21010;-40
2022/01/19 08:24:30;;;;;;;8.58;4.40;;;;;;;-2.90;61.46;100142.11;1713431;83;21139;-40
2022/01/19 08:26:57;;;;;;;9.13;4.60;;;;;;;-2.82;61.37;100127.88;1713741;83;21037;-40
2022/01/19 08:29:25;;;;;;;8.08;4.22;;;;;;;-2.62;61.56;100123.27;1713407;82;21053;-40
2022/01/19 08:31:54;;;;;;;9.03;4.40;;;;;;;-2.26;61.17;100121.11;1713418;82;21564;-40
2022/01/19 08:34:38;;;;;;;8.73;4.10;;;;;;;-1.92;60.52;100120.77;1713586;83;21037;-40
2022/01/19 08:37:19;;;;;;;9.03;3.98;;;;;;;-1.61;59.51;100122.50;1713783;83;21063;-40
2022/01/19 08:39:48;;;;;;;9.85;4.20;;;;;;;-1.40;59.00;100118.83;1713038;82;21489;-40
2022/01/19 08:42:15;;;;;;;9.63;4.20;;;;;;;-1.31;58.44;100114.59;1713538;82;21547;-40
2022/01/19 08:44:42;;;;;;;9.55;4.03;;;;;;;-1.32;57.91;100122.85;1713579;82;21396;-40
2022/01/19 08:47:14;;;;;;;9.53;3.85;;;;;;;-1.35;57.96;100116.70;1713232;82;21006;-40
2022/01/19 08:49:48;;;;;;;9.45;3.90;;;;;;;-1.40;57.60;100103.39;1712134;83;21147;-40
2022/01/19 08:52:34;;;;;;;8.63;3.80;;;;;;;-1.47;57.42;100098.34;1713514;83;21096;-40
2022/01/19 08:55:04;;;;;;;10.90;4.33;;;;;;;-1.47;58.06;100100.20;1712952;82;21047;-40
2022/01/19 08:57:30;;;;;;;12.58;4.05;;;;;;;-1.42;57.99;100091.71;1713742;83;21083;-40
2022/01/19 08:59:57;;;;;;;9.40;3.65;;;;;;;-1.28;57.87;100092.53;1713542;83;21033;-40
2022/01/19 09:02:24;;;;;;;7.62;3.67;;;;;;;-1.12;57.63;100096.82;1713422;82;21124;-40
2022/01/19 09:04:50;;;;;;;7.00;3.70;;;;;;;-0.94;57.92;100090.97;1713526;83;21025;-40
2022/01/19 09:07:20;;;;;;;5.47;2.95;;;;;;;-0.73;57.06;100079.27;1713462;82;20961;-39
2022/01/19 09:09:48;;;;;;;7.08;2.98;;;;;;;-0.54;56.84;100072.86;1713712;83;21803;-40
2022/01/19 09:12:14;;;;;;;7.05;3.60;;;;;;;-0.40;55.25;100061.91;1713563;82;21630;-40
2022/01/19 09:14:41;;;;;;;7.10;3.10;;;;;;;-0.34;55.17;100058.70;1713443;83;21111;-40
2022/01/19 09:17:09;;;;;;;8.10;3.20;;;;;;;-0.32;55.40;100060.02;1713375;82;21021;-40
2022/01/19 09:19:39;;;;;;;6.72;3.17;;;;;;;-0.26;55.47;100050.95;1713343;83;21021;-40
2022/01/19 09:22:07;;;;;;;7.33;3.22;;;;;;;-0.17;55.17;100055.17;1713698;82;21045;-40
2022/01/19 09:24:36;;;;;;;7.95;3.22;;;;;;;-0.10;55.29;100055.70;1713627;82;21037;-40
2022/01/19 09:27:04;;;;;;;6.47;3.05;;;;;;;-0.02;55.63;100045.80;1713696;83;21100;-40
2022/01/19 09:29:31;;;;;;;6.47;2.85;;;;;;;0.04;55.13;100047.38;1713449;83;20973;-40
2022/01/19 09:33:23;;;;;;;9.85;4.25;;;;;;;0.14;55.19;100031.88;1797072;79;22736;-40
2022/01/19 09:35:53;;;;;;;8.25;3.50;;;;;;;0.01;55.45;100029.25;1756993;80;21025;-40
2022/01/19 09:38:21;;;;;;;6.67;3.45;;;;;;;0.04;55.66;100027.39;1756994;81;21144;-40
2022/01/19 09:40:48;;;;;;;7.92;3.77;;;;;;;0.10;55.53;100031.60;1722823;83;20964;-40
2022/01/19 09:43:17;;;;;;;6.97;3.75;;;;;;;0.12;56.00;100028.14;1723603;83;21003;-40
2022/01/19 09:45:44;;;;;;;4.72;2.72;;;;;;;0.15;56.22;100025.45;1723880;83;21436;-40
2022/01/19 09:48:11;;;;;;;9.00;3.65;;;;;;;0.22;56.26;100032.09;1723384;83;20988;-40
2022/01/19 09:50:38;;;;;;;9.38;3.75;;;;;;;0.30;55.46;100031.50;1722820;83;22349;-40
2022/01/19 09:53:06;;;;;;;10.35;4.05;;;;;;;0.30;55.60;100035.50;1723338;83;21015;-40
2022/01/19 09:55:33;;;;;;;8.03;3.80;;;;;;;0.26;55.33;100033.67;1721408;81;20952;-40
2022/01/19 09:58:02;;;;;;;14.20;4.62;;;;;;;0.19;55.80;100030.52;1714819;83;21112;-40
2022/01/19 10:00:28;;;;;;;10.68;4.78;;;;;;;0.15;55.93;100032.11;1741002;82;21019;-40
2022/01/19 10:03:23;;;;;;;7.50;4.22;;;;;;;0.07;56.03;100025.50;1725890;83;21945;-40
2022/01/19 10:06:12;;;;;;;9.38;4.58;;;;;;;0.06;56.49;100027.89;1725757;83;21016;-41
2022/01/19 10:08:55;;;;;;;11.03;4.97;;;;;;;0.06;56.26;100018.56;1723836;82;21555;-42
2022/01/19 10:17:00;;;;;;;11.75;5.30;;;;;;;-0.11;57.47;100012.80;1721146;83;21138;-41
2022/01/19 10:19:35;;;;;;;9.38;5.17;;;;;;;-0.11;57.45;100007.46;1720687;83;21048;-41
2022/01/19 10:22:10;;;;;;;11.85;4.78;;;;;;;-0.11;57.77;100016.79;1720967;83;21021;-41
2022/01/19 10:24:56;;;;;;;13.88;5.30;;;;;;;-0.13;57.96;100016.25;1720865;83;21044;-42
2022/01/19 10:27:34;;;;;;;8.43;4.70;;;;;;;-0.15;58.13;100015.22;1720738;83;21052;-42
2022/01/19 10:30:10;;;;;;;10.03;4.60;;;;;;;-0.19;58.45;100017.33;1720813;83;21154;-42
2022/01/19 10:32:55;;;;;;;10.53;4.62;;;;;;;-0.26;58.58;100012.84;1716277;83;20984;-42
2022/01/19 10:35:38;;;;;;;8.65;4.67;;;;;;;-0.39;58.98;100005.44;1713486;83;20966;-42
2022/01/19 10:38:28;;;;;;;8.80;4.45;;;;;;;-0.53;59.66;99995.87;1713529;83;21010;-41
2022/01/19 10:41:03;;;;;;;10.70;4.83;;;;;;;-0.57;60.21;100000.94;1713469;83;21583;-42
2022/01/19 10:43:39;;;;;;;10.48;4.53;;;;;;;-0.55;60.38;100011.34;1713162;83;21512;-42
2022/01/19 10:46:30;;;;;;;8.65;4.58;;;;;;;-0.50;60.72;100010.80;1707603;83;20982;-42
2022/01/19 10:49:07;;;;;;;10.10;5.70;;;;;;;-0.37;60.77;100004.62;1712944;83;21647;-42
2022/01/19 10:51:39;;;;;;;9.73;5.35;;;;;;;-0.30;60.57;99992.62;1712763;83;20993;-42
2022/01/19 10:54:19;;;;;;;11.00;5.62;;;;;;;-0.31;60.66;99981.69;1712956;83;21021;-42
2022/01/19 10:56:48;;;;;;;12.95;6.20;;;;;;;-0.33;60.93;99985.69;1712821;83;21843;-41
2022/01/19 10:59:17;;;;;;;12.13;6.00;;;;;;;-0.29;61.40;99979.53;1712985;83;21025;-42
2022/01/19 11:01:56;;;;;;;12.63;5.43;;;;;;;-0.29;61.40;99979.53;1713147;83;21449;-42
2022/01/19 11:04:42;;;;;;;12.05;5.92;;;;;;;-0.24;61.70;99978.75;1712797;83;21627;-42
2022/01/19 11:07:10;;;;;;;9.88;4.95;;;;;;;-0.11;61.77;99992.27;1711077;83;21096;-42
2022/01/19 11:09:46;;;;;;;10.70;5.03;;;;;;;0.05;61.44;99991.64;1712765;83;21174;-42
2022/01/19 11:12:16;;;;;;;10.00;5.33;;;;;;;0.16;61.38;99983.86;1712181;83;21587;-42
2022/01/19 11:14:45;;;;;;;10.82;5.53;;;;;;;0.36;61.39;99979.74;1712117;83;21481;-42
2022/01/19 11:17:12;;;;;;;11.63;5.45;;;;;;;0.67;61.26;99964.32;1712849;83;21045;-42
2022/01/19 11:19:40;;;;;;;10.45;4.78;;;;;;;1.06;60.49;99966.91;1712874;83;21542;-42
2022/01/19 11:22:30;;;;;;;11.30;5.10;;;;;;;1.39;59.91;99969.78;1713035;83;21115;-42
2022/01/19 11:25:18;;;;;;;9.70;5.65;;;;;;;1.66;58.73;99962.78;1712712;83;20994;-42
2022/01/19 11:27:48;;;;;;;12.60;5.58;;;;;;;1.86;58.24;99971.09;1712913;83;21032;-42
2022/01/19 11:30:34;;;;;;;12.15;6.05;;;;;;;1.99;57.74;99952.99;1712849;83;20977;-42
2022/01/19 11:33:26;;;;;;;9.10;5.20;;;;;;;2.12;57.04;99941.59;1709367;83;21041;-42
2022/01/19 11:36:02;;;;;;;12.50;5.70;;;;;;;2.26;56.99;99943.00;1691013;84;21885;-42
2022/01/19 11:38:36;;;;;;;9.75;5.85;;;;;;;2.45;56.39;99942.98;1702125;83;21033;-42
2022/01/19 11:41:18;;;;;;;10.30;5.92;;;;;;;2.60;55.94;99944.09;1707192;84;20950;-42
2022/01/19 11:43:55;;;;;;;11.88;6.33;;;;;;;2.80;55.74;99941.62;1707216;84;21037;-42
2022/01/19 11:46:28;;;;;;;11.95;6.42;;;;;;;2.90;55.08;99919.48;1703788;84;21603;-42
2022/01/19 11:48:55;;;;;;;12.30;6.20;;;;;;;3.00;54.94;99921.19;1702059;83;21098;-42
2022/01/19 11:51:42;;;;;;;11.35;6.30;;;;;;;3.09;54.73;99928.78;1707168;84;20954;-42
2022/01/19 11:54:23;;;;;;;12.95;6.97;;;;;;;3.15;54.67;99924.90;1706742;84;21044;-42
2022/01/19 11:57:04;;;;;;;12.05;6.28;;;;;;;3.10;54.33;99914.28;1707193;83;21383;-42
2022/01/19 11:59:55;;;;;;;16.97;6.72;;;;;;;2.91;54.82;99904.98;1707254;84;21014;-42
2022/01/19 12:02:35;;;;;;;12.13;6.80;;;;;;;2.73;55.23;99893.00;1707507;83;21856;-42
2022/01/19 12:05:10;;;;;;;11.63;6.65;;;;;;;2.58;55.92;99880.67;1706531;84;21032;-42
2022/01/19 12:07:53;;;;;;;12.63;6.50;;;;;;;2.45;56.13;99884.11;1707070;84;21615;-42
2022/01/19 12:10:42;;;;;;;11.40;6.03;;;;;;;2.32;56.72;99878.98;1707203;84;21031;-42
2022/01/19 12:16:32;;;;;;;9.13;5.58;;;;;;;2.22;57.32;99868.44;1707392;84;21958;-42
2022/01/19 12:19:10;;;;;;;13.05;6.40;;;;;;;2.15;57.73;99877.36;1706332;84;20942;-42
2022/01/19 12:21:43;;;;;;;10.90;6.10;;;;;;;2.10;57.97;99890.27;1707347;84;20957;-42
2022/01/19 12:24:27;;;;;;;10.90;5.58;;;;;;;2.09;58.16;99891.88;1706866;84;20989;-42
2022/01/19 12:27:19;;;;;;;10.23;5.50;;;;;;;1.99;58.64;99903.52;1707088;84;21009;-42
2022/01/19 12:29:51;;;;;;;11.08;5.85;;;;;;;1.86;58.88;99895.44;1707180;83;21157;-42
2022/01/19 12:32:27;;;;;;;11.85;6.08;;;;;;;1.62;59.63;99904.84;1708029;83;21048;-42
2022/01/19 12:35:03;;;;;;;11.55;5.92;;;;;;;1.42;60.36;99899.74;1712674;83;21014;-42
2022/01/19 12:37:41;;;;;;;10.80;5.85;;;;;;;1.27;60.90;99898.84;1712312;83;21547;-42
2022/01/19 12:40:26;;;;;;;11.22;6.33;;;;;;;1.23;61.42;99895.16;1712817;83;21029;-42
2022/01/19 12:42:59;;;;;;;9.83;6.15;;;;;;;1.18;61.66;99891.20;1712813;83;22015;-42
2022/01/19 12:45:30;;;;;;;10.72;6.53;;;;;;;1.15;62.07;99904.34;1712683;83;21507;-42
2022/01/19 12:48:03;;;;;;;11.53;6.53;;;;;;;1.20;62.19;99890.93;1712691;83;21001;-42
2022/01/19 12:50:43;;;;;;;13.22;6.15;;;;;;;1.30;62.17;99882.27;1712785;83;21642;-42
2022/01/19 12:53:23;;;;;;;10.55;6.45;;;;;;;1.44;61.90;99884.23;1712827;83;21049;-42
2022/01/19 12:55:58;;;;;;;12.60;6.62;;;;;;;1.46;61.79;99884.19;1712692;83;21155;-42
2022/01/19 12:58:30;;;;;;;13.38;7.03;;;;;;;1.46;61.77;99883.39;1712940;83;20973;-42
2022/01/19 13:01:01;;;;;;;14.07;7.30;;;;;;;1.42;61.77;99885.05;1710733;83;21033;-42
2022/01/19 13:03:35;;;;;;;12.45;7.40;;;;;;;1.39;62.04;99885.09;1713002;83;21821;-42
2022/01/19 13:06:08;;;;;;;14.35;7.85;;;;;;;1.40;62.08;99884.55;1711924;83;21129;-42
2022/01/19 13:08:58;;;;;;;11.25;6.80;;;;;;;1.42;62.15;99871.69;1712851;83;21093;-43